sensor_id;sensor_type;location;lat;lon;timestamp;P1;durP1;ratioP1;P2;durP2;ratioP2
37151;SDS011;23046;50.112;8.952;2023-07-29T00:00:02;1.30;;;1.20;;
37151;SDS011;23046;50.112;8.952;2023-07-29T00:00:22;1.20;;;1.10;;
37151;SDS011;23046;50.112;8.952;2023-07-29T00:00:32;1.00;;;1.00;;
37151;SDS011;23046;50.112;8.952;2023-07-29T00:00:43;1.10;;;1.10;;
37151;SDS011;23046;50.112;8.952;2023-07-29T00:00:53;1.10;;;1.10;;
37151;SDS011;23046;50.112;8.952;2023-07-29T00:01:05;1.00;;;1.00;;
37151;SDS011;23046;50.112;8.952;2023-07-29T00:01:15;0.90;;;0.90;;
37151;SDS011;23046;50.112;8.952;2023-07-29T00:01:25;0.90;;;0.90;;
37151;SDS011;23046;50.112;8.952;2023-07-29T00:01:35;1.10;;;1.00;;
37151;SDS011;23046;50.112;8.952;2023-07-29T00:01:45;1.00;;;1.00;;
37151;SDS011;23046;50.112;8.952;2023-07-29T00:01:56;0.90;;;0.90;;
37151;SDS011;23046;50.112;8.952;2023-07-29T00:02:06;0.93;;;0.93;;
37151;SDS011;23046;50.112;8.952;2023-07-29T00:02:16;1.00;;;1.00;;
37151;SDS011;23046;50.112;8.952;2023-07-29T00:02:26;1.00;;;1.00;;
37151;SDS011;23046;50.112;8.952;2023-07-29T00:02:39;1.05;;;1.05;;
37151;SDS011;23046;50.112;8.952;2023-07-29T00:02:49;1.00;;;1.00;;
37151;SDS011;23046;50.112;8.952;2023-07-29T00:03:00;1.50;;;1.10;;
37151;SDS011;23046;50.112;8.952;2023-07-29T00:03:10;1.50;;;1.00;;
37151;SDS011;23046;50.112;8.952;2023-07-29T00:03:20;1.40;;;0.90;;
37151;SDS011;23046;50.112;8.952;2023-07-29T00:03:30;0.80;;;0.80;;
37151;SDS011;23046;50.112;8.952;2023-07-29T00:03:42;0.80;;;0.80;;
37151;SDS011;23046;50.112;8.952;2023-07-29T00:03:52;0.80;;;0.80;;
37151;SDS011;23046;50.112;8.952;2023-07-29T00:04:02;0.90;;;0.90;;
37151;SDS011;23046;50.112;8.952;2023-07-29T00:04:12;1.40;;;0.90;;
37151;SDS011;23046;50.112;8.952;2023-07-29T00:04:23;1.50;;;1.00;;
37151;SDS011;23046;50.112;8.952;2023-07-29T00:04:33;1.47;;;1.00;;
37151;SDS011;23046;50.112;8.952;2023-07-29T00:04:43;1.10;;;1.10;;
37151;SDS011;23046;50.112;8.952;2023-07-29T00:04:53;1.08;;;1.08;;
37151;SDS011;23046;50.112;8.952;2023-07-29T00:05:04;1.07;;;1.07;;
37151;SDS011;23046;50.112;8.952;2023-07-29T00:05:14;1.00;;;1.00;;
37151;SDS011;23046;50.112;8.952;2023-07-29T00:05:24;0.90;;;0.90;;
37151;SDS011;23046;50.112;8.952;2023-07-29T00:05:34;0.82;;;0.82;;
37151;SDS011;23046;50.112;8.952;2023-07-29T00:05:44;0.90;;;0.90;;
37151;SDS011;23046;50.112;8.952;2023-07-29T00:05:55;0.90;;;0.90;;
37151;SDS011;23046;50.112;8.952;2023-07-29T00:06:05;1.00;;;1.00;;
37151;SDS011;23046;50.112;8.952;2023-07-29T00:06:15;1.00;;;1.00;;
37151;SDS011;23046;50.112;8.952;2023-07-29T00:06:26;2.10;;;1.10;;
37151;SDS011;23046;50.112;8.952;2023-07-29T00:06:36;2.20;;;1.00;;
37151;SDS011;23046;50.112;8.952;2023-07-29T00:06:46;2.17;;;0.95;;
37151;SDS011;23046;50.112;8.952;2023-07-29T00:06:56;1.10;;;0.90;;
37151;SDS011;23046;50.112;8.952;2023-07-29T00:07:07;1.10;;;1.00;;
37151;SDS011;23046;50.112;8.952;2023-07-29T00:07:17;1.07;;;1.00;;
37151;SDS011;23046;50.112;8.952;2023-07-29T00:07:27;1.00;;;1.00;;
37151;SDS011;23046;50.112;8.952;2023-07-29T00:07:37;0.90;;;0.90;;
37151;SDS011;23046;50.112;8.952;2023-07-29T00:07:47;0.90;;;0.90;;
37151;SDS011;23046;50.112;8.952;2023-07-29T00:07:58;1.07;;;0.90;;
37151;SDS011;23046;50.112;8.952;2023-07-29T00:08:08;1.07;;;0.97;;
37151;SDS011;23046;50.112;8.952;2023-07-29T00:08:18;1.13;;;1.03;;
37151;SDS011;23046;50.112;8.952;2023-07-29T00:08:28;1.07;;;1.07;;
37151;SDS011;23046;50.112;8.952;2023-07-29T00:08:38;1.00;;;1.00;;
37151;SDS011;23046;50.112;8.952;2023-07-29T00:08:49;1.00;;;1.00;;
37151;SDS011;23046;50.112;8.952;2023-07-29T00:08:59;1.00;;;1.00;;
37151;SDS011;23046;50.112;8.952;2023-07-29T00:09:09;1.20;;;1.10;;
37151;SDS011;23046;50.112;8.952;2023-07-29T00:09:19;1.20;;;1.10;;
37151;SDS011;23046;50.112;8.952;2023-07-29T00:09:29;1.13;;;1.03;;
37151;SDS011;23046;50.112;8.952;2023-07-29T00:09:39;0.98;;;0.98;;
37151;SDS011;23046;50.112;8.952;2023-07-29T00:09:50;0.90;;;0.90;;
37151;SDS011;23046;50.112;8.952;2023-07-29T00:10:00;0.93;;;0.93;;
37151;SDS011;23046;50.112;8.952;2023-07-29T00:10:10;1.00;;;1.00;;
37151;SDS011;23046;50.112;8.952;2023-07-29T00:10:20;1.00;;;1.00;;
37151;SDS011;23046;50.112;8.952;2023-07-29T00:10:35;1.00;;;1.00;;
37151;SDS011;23046;50.112;8.952;2023-07-29T00:10:46;1.10;;;1.00;;
37151;SDS011;23046;50.112;8.952;2023-07-29T00:10:56;0.90;;;0.90;;
37151;SDS011;23046;50.112;8.952;2023-07-29T00:11:06;0.90;;;0.90;;
37151;SDS011;23046;50.112;8.952;2023-07-29T00:11:16;1.00;;;1.00;;
37151;SDS011;23046;50.112;8.952;2023-07-29T00:11:26;1.00;;;1.00;;
37151;SDS011;23046;50.112;8.952;2023-07-29T00:11:36;1.30;;;1.00;;
37151;SDS011;23046;50.112;8.952;2023-07-29T00:11:47;2.40;;;1.00;;
37151;SDS011;23046;50.112;8.952;2023-07-29T00:11:57;2.50;;;1.10;;
37151;SDS011;23046;50.112;8.952;2023-07-29T00:12:07;1.60;;;1.10;;
37151;SDS011;23046;50.112;8.952;2023-07-29T00:12:17;1.10;;;1.10;;
37151;SDS011;23046;50.112;8.952;2023-07-29T00:12:27;1.00;;;1.00;;
37151;SDS011;23046;50.112;8.952;2023-07-29T00:12:38;1.17;;;1.07;;
37151;SDS011;23046;50.112;8.952;2023-07-29T00:12:48;1.08;;;1.00;;
37151;SDS011;23046;50.112;8.952;2023-07-29T00:12:58;1.20;;;1.10;;
37151;SDS011;23046;50.112;8.952;2023-07-29T00:13:08;0.90;;;0.90;;
37151;SDS011;23046;50.112;8.952;2023-07-29T00:13:19;1.30;;;1.20;;
37151;SDS011;23046;50.112;8.952;2023-07-29T00:13:29;1.30;;;1.20;;
37151;SDS011;23046;50.112;8.952;2023-07-29T00:13:39;1.50;;;1.23;;
37151;SDS011;23046;50.112;8.952;2023-07-29T00:13:49;1.00;;;0.90;;
37151;SDS011;23046;50.112;8.952;2023-07-29T00:14:01;1.10;;;1.00;;
37151;SDS011;23046;50.112;8.952;2023-07-29T00:14:11;0.90;;;0.90;;
37151;SDS011;23046;50.112;8.952;2023-07-29T00:14:21;0.90;;;0.90;;
37151;SDS011;23046;50.112;8.952;2023-07-29T00:14:31;0.90;;;0.90;;
37151;SDS011;23046;50.112;8.952;2023-07-29T00:14:42;1.00;;;1.00;;
37151;SDS011;23046;50.112;8.952;2023-07-29T00:14:52;0.97;;;0.97;;
37151;SDS011;23046;50.112;8.952;2023-07-29T00:15:02;1.00;;;1.00;;
37151;SDS011;23046;50.112;8.952;2023-07-29T00:15:12;0.97;;;0.97;;
37151;SDS011;23046;50.112;8.952;2023-07-29T00:15:23;0.90;;;0.90;;
37151;SDS011;23046;50.112;8.952;2023-07-29T00:15:33;0.80;;;0.80;;
37151;SDS011;23046;50.112;8.952;2023-07-29T00:15:43;0.98;;;0.98;;
37151;SDS011;23046;50.112;8.952;2023-07-29T00:15:54;1.10;;;1.10;;
37151;SDS011;23046;50.112;8.952;2023-07-29T00:16:05;1.10;;;1.10;;
37151;SDS011;23046;50.112;8.952;2023-07-29T00:16:16;1.00;;;1.00;;
37151;SDS011;23046;50.112;8.952;2023-07-29T00:16:27;1.92;;;1.00;;
37151;SDS011;23046;50.112;8.952;2023-07-29T00:16:37;2.10;;;1.10;;
37151;SDS011;23046;50.112;8.952;2023-07-29T00:16:47;2.30;;;1.17;;
37151;SDS011;23046;50.112;8.952;2023-07-29T00:16:57;1.47;;;1.20;;
37151;SDS011;23046;50.112;8.952;2023-07-29T00:17:08;1.40;;;1.13;;
37151;SDS011;23046;50.112;8.952;2023-07-29T00:17:18;2.07;;;1.20;;
37151;SDS011;23046;50.112;8.952;2023-07-29T00:17:30;2.30;;;1.30;;
37151;SDS011;23046;50.112;8.952;2023-07-29T00:17:40;2.37;;;1.30;;
37151;SDS011;23046;50.112;8.952;2023-07-29T00:17:50;1.10;;;1.10;;
37151;SDS011;23046;50.112;8.952;2023-07-29T00:18:00;0.90;;;0.90;;
37151;SDS011;23046;50.112;8.952;2023-07-29T00:18:10;1.30;;;0.90;;
37151;SDS011;23046;50.112;8.952;2023-07-29T00:18:21;2.10;;;1.00;;
37151;SDS011;23046;50.112;8.952;2023-07-29T00:18:31;2.05;;;1.00;;
37151;SDS011;23046;50.112;8.952;2023-07-29T00:18:42;1.30;;;0.90;;
37151;SDS011;23046;50.112;8.952;2023-07-29T00:18:52;0.90;;;0.90;;
37151;SDS011;23046;50.112;8.952;2023-07-29T00:19:02;0.93;;;0.93;;
37151;SDS011;23046;50.112;8.952;2023-07-29T00:19:13;1.00;;;1.00;;
37151;SDS011;23046;50.112;8.952;2023-07-29T00:19:23;1.08;;;1.08;;
37151;SDS011;23046;50.112;8.952;2023-07-29T00:19:33;1.00;;;1.00;;
37151;SDS011;23046;50.112;8.952;2023-07-29T00:19:44;1.00;;;1.00;;
37151;SDS011;23046;50.112;8.952;2023-07-29T00:19:56;1.00;;;1.00;;
37151;SDS011;23046;50.112;8.952;2023-07-29T00:20:06;0.90;;;0.90;;
37151;SDS011;23046;50.112;8.952;2023-07-29T00:20:17;1.10;;;1.00;;
37151;SDS011;23046;50.112;8.952;2023-07-29T00:20:27;1.10;;;1.00;;
37151;SDS011;23046;50.112;8.952;2023-07-29T00:20:37;1.10;;;1.00;;
37151;SDS011;23046;50.112;8.952;2023-07-29T00:20:47;1.07;;;1.07;;
37151;SDS011;23046;50.112;8.952;2023-07-29T00:21:00;1.30;;;1.10;;
37151;SDS011;23046;50.112;8.952;2023-07-29T00:21:11;1.27;;;1.10;;
37151;SDS011;23046;50.112;8.952;2023-07-29T00:21:21;1.20;;;0.90;;
37151;SDS011;23046;50.112;8.952;2023-07-29T00:21:31;1.73;;;0.90;;
37151;SDS011;23046;50.112;8.952;2023-07-29T00:21:41;1.90;;;1.00;;
37151;SDS011;23046;50.112;8.952;2023-07-29T00:21:52;1.98;;;1.00;;
37151;SDS011;23046;50.112;8.952;2023-07-29T00:22:02;1.10;;;1.00;;
37151;SDS011;23046;50.112;8.952;2023-07-29T00:22:12;1.70;;;1.07;;
37151;SDS011;23046;50.112;8.952;2023-07-29T00:22:22;1.48;;;1.10;;
37151;SDS011;23046;50.112;8.952;2023-07-29T00:22:33;1.23;;;0.90;;
37151;SDS011;23046;50.112;8.952;2023-07-29T00:22:43;0.80;;;0.80;;
37151;SDS011;23046;50.112;8.952;2023-07-29T00:22:53;0.80;;;0.80;;
37151;SDS011;23046;50.112;8.952;2023-07-29T00:23:04;0.93;;;0.93;;
37151;SDS011;23046;50.112;8.952;2023-07-29T00:23:15;1.00;;;1.00;;
37151;SDS011;23046;50.112;8.952;2023-07-29T00:23:25;1.00;;;1.00;;
37151;SDS011;23046;50.112;8.952;2023-07-29T00:23:35;0.93;;;0.93;;
37151;SDS011;23046;50.112;8.952;2023-07-29T00:23:45;0.90;;;0.90;;
37151;SDS011;23046;50.112;8.952;2023-07-29T00:23:56;0.90;;;0.90;;
37151;SDS011;23046;50.112;8.952;2023-07-29T00:24:07;1.00;;;1.00;;
37151;SDS011;23046;50.112;8.952;2023-07-29T00:24:17;1.00;;;1.00;;
37151;SDS011;23046;50.112;8.952;2023-07-29T00:24:27;1.00;;;1.00;;
37151;SDS011;23046;50.112;8.952;2023-07-29T00:24:39;0.90;;;0.90;;
37151;SDS011;23046;50.112;8.952;2023-07-29T00:24:52;0.82;;;0.82;;
37151;SDS011;23046;50.112;8.952;2023-07-29T00:25:05;0.85;;;0.85;;
37151;SDS011;23046;50.112;8.952;2023-07-29T00:25:18;1.17;;;1.10;;
37151;SDS011;23046;50.112;8.952;2023-07-29T00:25:28;1.27;;;1.13;;
37151;SDS011;23046;50.112;8.952;2023-07-29T00:25:38;1.20;;;1.00;;
37151;SDS011;23046;50.112;8.952;2023-07-29T00:25:48;1.07;;;0.97;;
37151;SDS011;23046;50.112;8.952;2023-07-29T00:25:59;1.00;;;1.00;;
37151;SDS011;23046;50.112;8.952;2023-07-29T00:26:09;1.10;;;1.10;;
37151;SDS011;23046;50.112;8.952;2023-07-29T00:26:19;1.10;;;1.10;;
37151;SDS011;23046;50.112;8.952;2023-07-29T00:26:31;1.05;;;1.05;;
37151;SDS011;23046;50.112;8.952;2023-07-29T00:26:42;1.00;;;1.00;;
37151;SDS011;23046;50.112;8.952;2023-07-29T00:26:52;1.10;;;1.00;;
37151;SDS011;23046;50.112;8.952;2023-07-29T00:27:02;1.00;;;1.00;;
37151;SDS011;23046;50.112;8.952;2023-07-29T00:27:12;0.90;;;0.90;;
37151;SDS011;23046;50.112;8.952;2023-07-29T00:27:23;0.90;;;0.90;;
37151;SDS011;23046;50.112;8.952;2023-07-29T00:27:33;0.95;;;0.95;;
37151;SDS011;23046;50.112;8.952;2023-07-29T00:27:43;1.20;;;1.10;;
37151;SDS011;23046;50.112;8.952;2023-07-29T00:27:57;1.20;;;1.10;;
37151;SDS011;23046;50.112;8.952;2023-07-29T00:28:07;1.20;;;1.10;;
37151;SDS011;23046;50.112;8.952;2023-07-29T00:28:17;1.10;;;1.10;;
37151;SDS011;23046;50.112;8.952;2023-07-29T00:28:28;1.10;;;1.10;;
37151;SDS011;23046;50.112;8.952;2023-07-29T00:28:39;1.10;;;1.10;;
37151;SDS011;23046;50.112;8.952;2023-07-29T00:28:49;1.10;;;1.10;;
37151;SDS011;23046;50.112;8.952;2023-07-29T00:28:59;1.00;;;1.00;;
37151;SDS011;23046;50.112;8.952;2023-07-29T00:29:09;0.90;;;0.90;;
37151;SDS011;23046;50.112;8.952;2023-07-29T00:29:19;0.90;;;0.90;;
37151;SDS011;23046;50.112;8.952;2023-07-29T00:29:30;1.00;;;0.90;;
37151;SDS011;23046;50.112;8.952;2023-07-29T00:29:40;1.10;;;1.00;;
37151;SDS011;23046;50.112;8.952;2023-07-29T00:29:50;1.15;;;1.00;;
37151;SDS011;23046;50.112;8.952;2023-07-29T00:30:01;0.90;;;0.90;;
37151;SDS011;23046;50.112;8.952;2023-07-29T00:30:11;0.97;;;0.97;;
37151;SDS011;23046;50.112;8.952;2023-07-29T00:30:21;0.88;;;0.88;;
37151;SDS011;23046;50.112;8.952;2023-07-29T00:30:31;0.90;;;0.90;;
37151;SDS011;23046;50.112;8.952;2023-07-29T00:30:42;0.88;;;0.88;;
37151;SDS011;23046;50.112;8.952;2023-07-29T00:30:52;0.80;;;0.80;;
37151;SDS011;23046;50.112;8.952;2023-07-29T00:31:02;0.90;;;0.90;;
37151;SDS011;23046;50.112;8.952;2023-07-29T00:31:13;1.03;;;1.03;;
37151;SDS011;23046;50.112;8.952;2023-07-29T00:31:23;1.30;;;1.20;;
37151;SDS011;23046;50.112;8.952;2023-07-29T00:31:34;1.08;;;0.98;;
37151;SDS011;23046;50.112;8.952;2023-07-29T00:31:45;1.00;;;0.90;;
37151;SDS011;23046;50.112;8.952;2023-07-29T00:31:55;0.80;;;0.80;;
37151;SDS011;23046;50.112;8.952;2023-07-29T00:32:05;0.90;;;0.90;;
37151;SDS011;23046;50.112;8.952;2023-07-29T00:32:15;0.83;;;0.83;;
37151;SDS011;23046;50.112;8.952;2023-07-29T00:32:27;0.93;;;0.93;;
37151;SDS011;23046;50.112;8.952;2023-07-29T00:32:37;0.90;;;0.90;;
37151;SDS011;23046;50.112;8.952;2023-07-29T00:32:47;1.00;;;1.00;;
37151;SDS011;23046;50.112;8.952;2023-07-29T00:32:57;0.90;;;0.90;;
37151;SDS011;23046;50.112;8.952;2023-07-29T00:33:08;0.90;;;0.90;;
37151;SDS011;23046;50.112;8.952;2023-07-29T00:33:18;1.10;;;1.00;;
37151;SDS011;23046;50.112;8.952;2023-07-29T00:33:29;1.40;;;1.00;;
37151;SDS011;23046;50.112;8.952;2023-07-29T00:33:40;1.40;;;1.10;;
37151;SDS011;23046;50.112;8.952;2023-07-29T00:33:50;1.13;;;1.03;;
37151;SDS011;23046;50.112;8.952;2023-07-29T00:34:00;1.00;;;1.00;;
37151;SDS011;23046;50.112;8.952;2023-07-29T00:34:10;0.98;;;0.98;;
37151;SDS011;23046;50.112;8.952;2023-07-29T00:34:20;1.00;;;1.00;;
37151;SDS011;23046;50.112;8.952;2023-07-29T00:34:31;1.10;;;1.10;;
37151;SDS011;23046;50.112;8.952;2023-07-29T00:34:41;1.27;;;1.17;;
37151;SDS011;23046;50.112;8.952;2023-07-29T00:34:51;1.07;;;1.07;;
37151;SDS011;23046;50.112;8.952;2023-07-29T00:35:01;1.48;;;1.10;;
37151;SDS011;23046;50.112;8.952;2023-07-29T00:35:12;1.30;;;1.00;;
37151;SDS011;23046;50.112;8.952;2023-07-29T00:35:22;1.30;;;1.00;;
37151;SDS011;23046;50.112;8.952;2023-07-29T00:35:32;0.97;;;0.97;;
37151;SDS011;23046;50.112;8.952;2023-07-29T00:35:44;1.00;;;1.00;;
37151;SDS011;23046;50.112;8.952;2023-07-29T00:35:54;1.20;;;1.20;;
37151;SDS011;23046;50.112;8.952;2023-07-29T00:36:04;1.10;;;1.10;;
37151;SDS011;23046;50.112;8.952;2023-07-29T00:36:15;1.17;;;1.13;;
37151;SDS011;23046;50.112;8.952;2023-07-29T00:36:25;1.07;;;0.97;;
37151;SDS011;23046;50.112;8.952;2023-07-29T00:36:35;1.10;;;1.00;;
37151;SDS011;23046;50.112;8.952;2023-07-29T00:36:46;1.03;;;1.00;;
37151;SDS011;23046;50.112;8.952;2023-07-29T00:36:56;1.03;;;1.00;;
37151;SDS011;23046;50.112;8.952;2023-07-29T00:37:07;0.93;;;0.90;;
37151;SDS011;23046;50.112;8.952;2023-07-29T00:37:17;0.90;;;0.90;;
37151;SDS011;23046;50.112;8.952;2023-07-29T00:37:29;0.90;;;0.90;;
37151;SDS011;23046;50.112;8.952;2023-07-29T00:37:40;1.00;;;1.00;;
37151;SDS011;23046;50.112;8.952;2023-07-29T00:37:50;1.10;;;1.10;;
37151;SDS011;23046;50.112;8.952;2023-07-29T00:38:00;0.93;;;0.93;;
37151;SDS011;23046;50.112;8.952;2023-07-29T00:38:10;0.90;;;0.90;;
37151;SDS011;23046;50.112;8.952;2023-07-29T00:38:21;0.90;;;0.90;;
37151;SDS011;23046;50.112;8.952;2023-07-29T00:38:31;0.93;;;0.90;;
37151;SDS011;23046;50.112;8.952;2023-07-29T00:38:41;0.90;;;0.90;;
37151;SDS011;23046;50.112;8.952;2023-07-29T00:38:51;0.97;;;0.97;;
37151;SDS011;23046;50.112;8.952;2023-07-29T00:39:03;1.00;;;1.00;;
37151;SDS011;23046;50.112;8.952;2023-07-29T00:39:14;0.90;;;0.90;;
37151;SDS011;23046;50.112;8.952;2023-07-29T00:39:24;1.67;;;0.90;;
37151;SDS011;23046;50.112;8.952;2023-07-29T00:39:34;1.70;;;0.80;;
37151;SDS011;23046;50.112;8.952;2023-07-29T00:39:44;1.80;;;0.97;;
37151;SDS011;23046;50.112;8.952;2023-07-29T00:39:54;0.90;;;0.90;;
37151;SDS011;23046;50.112;8.952;2023-07-29T00:40:09;1.10;;;1.00;;
37151;SDS011;23046;50.112;8.952;2023-07-29T00:40:22;1.10;;;1.00;;
37151;SDS011;23046;50.112;8.952;2023-07-29T00:40:34;1.00;;;1.00;;
37151;SDS011;23046;50.112;8.952;2023-07-29T00:40:45;1.10;;;1.00;;
37151;SDS011;23046;50.112;8.952;2023-07-29T00:40:57;1.27;;;1.00;;
37151;SDS011;23046;50.112;8.952;2023-07-29T00:41:07;1.30;;;1.08;;
37151;SDS011;23046;50.112;8.952;2023-07-29T00:41:18;1.23;;;1.10;;
37151;SDS011;23046;50.112;8.952;2023-07-29T00:41:29;1.05;;;1.05;;
37151;SDS011;23046;50.112;8.952;2023-07-29T00:41:39;1.10;;;1.10;;
37151;SDS011;23046;50.112;8.952;2023-07-29T00:41:50;1.00;;;1.00;;
37151;SDS011;23046;50.112;8.952;2023-07-29T00:42:00;1.25;;;1.15;;
37151;SDS011;23046;50.112;8.952;2023-07-29T00:42:10;1.20;;;1.10;;
37151;SDS011;23046;50.112;8.952;2023-07-29T00:42:20;1.30;;;1.20;;
37151;SDS011;23046;50.112;8.952;2023-07-29T00:42:31;1.10;;;1.10;;
37151;SDS011;23046;50.112;8.952;2023-07-29T00:42:41;1.03;;;1.03;;
37151;SDS011;23046;50.112;8.952;2023-07-29T00:42:52;0.98;;;0.98;;
37151;SDS011;23046;50.112;8.952;2023-07-29T00:43:03;0.90;;;0.90;;
37151;SDS011;23046;50.112;8.952;2023-07-29T00:43:13;1.00;;;1.00;;
37151;SDS011;23046;50.112;8.952;2023-07-29T00:43:23;1.20;;;1.10;;
37151;SDS011;23046;50.112;8.952;2023-07-29T00:43:33;1.23;;;1.13;;
37151;SDS011;23046;50.112;8.952;2023-07-29T00:43:46;1.17;;;1.10;;
37151;SDS011;23046;50.112;8.952;2023-07-29T00:43:56;1.10;;;1.10;;
37151;SDS011;23046;50.112;8.952;2023-07-29T00:44:06;1.10;;;1.10;;
37151;SDS011;23046;50.112;8.952;2023-07-29T00:44:16;1.30;;;1.03;;
37151;SDS011;23046;50.112;8.952;2023-07-29T00:44:26;1.30;;;1.00;;
37151;SDS011;23046;50.112;8.952;2023-07-29T00:44:37;1.10;;;0.90;;
37151;SDS011;23046;50.112;8.952;2023-07-29T00:44:47;1.00;;;1.00;;
37151;SDS011;23046;50.112;8.952;2023-07-29T00:44:57;1.20;;;1.20;;
37151;SDS011;23046;50.112;8.952;2023-07-29T00:45:08;1.10;;;1.10;;
37151;SDS011;23046;50.112;8.952;2023-07-29T00:45:18;1.10;;;1.10;;
37151;SDS011;23046;50.112;8.952;2023-07-29T00:45:29;1.07;;;1.07;;
37151;SDS011;23046;50.112;8.952;2023-07-29T00:45:39;1.30;;;1.20;;
37151;SDS011;23046;50.112;8.952;2023-07-29T00:45:51;1.33;;;1.23;;
37151;SDS011;23046;50.112;8.952;2023-07-29T00:46:01;1.10;;;1.10;;
37151;SDS011;23046;50.112;8.952;2023-07-29T00:46:12;1.10;;;1.10;;
37151;SDS011;23046;50.112;8.952;2023-07-29T00:46:23;1.00;;;1.00;;
37151;SDS011;23046;50.112;8.952;2023-07-29T00:46:34;1.10;;;1.10;;
37151;SDS011;23046;50.112;8.952;2023-07-29T00:46:45;1.17;;;1.02;;
37151;SDS011;23046;50.112;8.952;2023-07-29T00:46:55;1.10;;;1.00;;
37151;SDS011;23046;50.112;8.952;2023-07-29T00:47:06;1.03;;;0.90;;
37151;SDS011;23046;50.112;8.952;2023-07-29T00:47:16;0.85;;;0.85;;
37151;SDS011;23046;50.112;8.952;2023-07-29T00:47:27;1.05;;;1.00;;
37151;SDS011;23046;50.112;8.952;2023-07-29T00:47:38;1.30;;;1.10;;
37151;SDS011;23046;50.112;8.952;2023-07-29T00:47:49;1.40;;;1.20;;
37151;SDS011;23046;50.112;8.952;2023-07-29T00:48:01;1.10;;;1.10;;
37151;SDS011;23046;50.112;8.952;2023-07-29T00:48:11;1.20;;;1.00;;
37151;SDS011;23046;50.112;8.952;2023-07-29T00:48:24;1.38;;;0.95;;
37151;SDS011;23046;50.112;8.952;2023-07-29T00:48:35;1.17;;;0.90;;
37151;SDS011;23046;50.112;8.952;2023-07-29T00:48:46;1.08;;;0.98;;
37151;SDS011;23046;50.112;8.952;2023-07-29T00:48:56;1.20;;;1.10;;
37151;SDS011;23046;50.112;8.952;2023-07-29T00:49:07;2.60;;;1.08;;
37151;SDS011;23046;50.112;8.952;2023-07-29T00:49:18;2.37;;;1.10;;
37151;SDS011;23046;50.112;8.952;2023-07-29T00:49:29;2.00;;;1.05;;
37151;SDS011;23046;50.112;8.952;2023-07-29T00:49:39;1.10;;;1.10;;
37151;SDS011;23046;50.112;8.952;2023-07-29T00:49:50;1.10;;;1.00;;
37151;SDS011;23046;50.112;8.952;2023-07-29T00:50:01;4.80;;;1.20;;
37151;SDS011;23046;50.112;8.952;2023-07-29T00:50:11;4.90;;;1.23;;
37151;SDS011;23046;50.112;8.952;2023-07-29T00:50:22;4.50;;;1.20;;
37151;SDS011;23046;50.112;8.952;2023-07-29T00:50:32;1.05;;;1.05;;
37151;SDS011;23046;50.112;8.952;2023-07-29T00:50:44;1.17;;;1.10;;
37151;SDS011;23046;50.112;8.952;2023-07-29T00:50:54;1.07;;;1.00;;
37151;SDS011;23046;50.112;8.952;2023-07-29T00:51:05;0.95;;;0.95;;
37151;SDS011;23046;50.112;8.952;2023-07-29T00:51:15;0.90;;;0.90;;
37151;SDS011;23046;50.112;8.952;2023-07-29T00:51:26;1.00;;;1.00;;
37151;SDS011;23046;50.112;8.952;2023-07-29T00:51:36;1.13;;;1.13;;
37151;SDS011;23046;50.112;8.952;2023-07-29T00:51:46;1.20;;;1.10;;
37151;SDS011;23046;50.112;8.952;2023-07-29T00:51:56;1.20;;;1.10;;
37151;SDS011;23046;50.112;8.952;2023-07-29T00:52:09;1.10;;;1.00;;
37151;SDS011;23046;50.112;8.952;2023-07-29T00:52:22;1.10;;;1.10;;
37151;SDS011;23046;50.112;8.952;2023-07-29T00:52:32;1.10;;;1.07;;
37151;SDS011;23046;50.112;8.952;2023-07-29T00:52:42;1.10;;;1.00;;
37151;SDS011;23046;50.112;8.952;2023-07-29T00:52:53;1.20;;;1.10;;
37151;SDS011;23046;50.112;8.952;2023-07-29T00:53:03;1.13;;;1.07;;
37151;SDS011;23046;50.112;8.952;2023-07-29T00:53:13;1.15;;;1.10;;
37151;SDS011;23046;50.112;8.952;2023-07-29T00:53:24;1.20;;;1.10;;
37151;SDS011;23046;50.112;8.952;2023-07-29T00:53:34;1.20;;;1.10;;
37151;SDS011;23046;50.112;8.952;2023-07-29T00:53:44;1.10;;;1.00;;
37151;SDS011;23046;50.112;8.952;2023-07-29T00:53:54;0.90;;;0.90;;
37151;SDS011;23046;50.112;8.952;2023-07-29T00:54:05;0.90;;;0.90;;
37151;SDS011;23046;50.112;8.952;2023-07-29T00:54:15;0.90;;;0.90;;
37151;SDS011;23046;50.112;8.952;2023-07-29T00:54:25;1.00;;;0.97;;
37151;SDS011;23046;50.112;8.952;2023-07-29T00:54:35;1.20;;;1.10;;
37151;SDS011;23046;50.112;8.952;2023-07-29T00:54:47;1.02;;;1.02;;
37151;SDS011;23046;50.112;8.952;2023-07-29T00:54:57;1.00;;;1.00;;
37151;SDS011;23046;50.112;8.952;2023-07-29T00:55:07;0.90;;;0.90;;
37151;SDS011;23046;50.112;8.952;2023-07-29T00:55:18;1.02;;;1.00;;
37151;SDS011;23046;50.112;8.952;2023-07-29T00:55:29;1.20;;;1.10;;
37151;SDS011;23046;50.112;8.952;2023-07-29T00:55:39;1.10;;;1.00;;
37151;SDS011;23046;50.112;8.952;2023-07-29T00:55:50;1.02;;;1.00;;
37151;SDS011;23046;50.112;8.952;2023-07-29T00:56:00;1.03;;;1.03;;
37151;SDS011;23046;50.112;8.952;2023-07-29T00:56:10;1.10;;;1.10;;
37151;SDS011;23046;50.112;8.952;2023-07-29T00:56:22;1.23;;;1.15;;
37151;SDS011;23046;50.112;8.952;2023-07-29T00:56:32;1.20;;;1.17;;
37151;SDS011;23046;50.112;8.952;2023-07-29T00:56:43;1.20;;;1.10;;
37151;SDS011;23046;50.112;8.952;2023-07-29T00:56:53;1.10;;;1.00;;
37151;SDS011;23046;50.112;8.952;2023-07-29T00:57:03;0.87;;;0.83;;
37151;SDS011;23046;50.112;8.952;2023-07-29T00:57:13;0.80;;;0.80;;
37151;SDS011;23046;50.112;8.952;2023-07-29T00:57:26;0.98;;;0.98;;
37151;SDS011;23046;50.112;8.952;2023-07-29T00:57:36;1.10;;;1.10;;
37151;SDS011;23046;50.112;8.952;2023-07-29T00:57:48;1.20;;;1.20;;
37151;SDS011;23046;50.112;8.952;2023-07-29T00:58:01;1.35;;;1.25;;
37151;SDS011;23046;50.112;8.952;2023-07-29T00:58:11;1.30;;;1.20;;
37151;SDS011;23046;50.112;8.952;2023-07-29T00:58:22;1.10;;;1.00;;
37151;SDS011;23046;50.112;8.952;2023-07-29T00:58:32;0.93;;;0.90;;
37151;SDS011;23046;50.112;8.952;2023-07-29T00:58:42;1.10;;;1.00;;
37151;SDS011;23046;50.112;8.952;2023-07-29T00:58:52;1.70;;;1.03;;
37151;SDS011;23046;50.112;8.952;2023-07-29T00:59:08;1.90;;;1.10;;
37151;SDS011;23046;50.112;8.952;2023-07-29T00:59:19;1.77;;;1.10;;
37151;SDS011;23046;50.112;8.952;2023-07-29T00:59:29;1.20;;;1.10;;
37151;SDS011;23046;50.112;8.952;2023-07-29T00:59:42;1.25;;;1.15;;
37151;SDS011;23046;50.112;8.952;2023-07-29T00:59:52;1.13;;;1.10;;
37151;SDS011;23046;50.112;8.952;2023-07-29T01:00:04;1.20;;;1.10;;
37151;SDS011;23046;50.112;8.952;2023-07-29T01:00:15;1.10;;;1.00;;
37151;SDS011;23046;50.112;8.952;2023-07-29T01:00:26;1.00;;;1.00;;
37151;SDS011;23046;50.112;8.952;2023-07-29T01:00:36;0.98;;;0.98;;
37151;SDS011;23046;50.112;8.952;2023-07-29T01:00:47;1.00;;;1.00;;
37151;SDS011;23046;50.112;8.952;2023-07-29T01:00:58;0.93;;;0.93;;
37151;SDS011;23046;50.112;8.952;2023-07-29T01:01:08;0.90;;;0.90;;
37151;SDS011;23046;50.112;8.952;2023-07-29T01:01:19;1.00;;;1.00;;
37151;SDS011;23046;50.112;8.952;2023-07-29T01:01:29;1.00;;;1.00;;
37151;SDS011;23046;50.112;8.952;2023-07-29T01:01:40;1.10;;;1.10;;
37151;SDS011;23046;50.112;8.952;2023-07-29T01:01:50;1.00;;;1.00;;
37151;SDS011;23046;50.112;8.952;2023-07-29T01:02:01;1.00;;;1.00;;
37151;SDS011;23046;50.112;8.952;2023-07-29T01:02:11;1.40;;;0.95;;
37151;SDS011;23046;50.112;8.952;2023-07-29T01:02:22;1.40;;;1.00;;
37151;SDS011;23046;50.112;8.952;2023-07-29T01:02:33;1.40;;;0.90;;
37151;SDS011;23046;50.112;8.952;2023-07-29T01:02:44;0.90;;;0.90;;
37151;SDS011;23046;50.112;8.952;2023-07-29T01:02:54;1.10;;;1.10;;
37151;SDS011;23046;50.112;8.952;2023-07-29T01:03:04;1.20;;;1.10;;
37151;SDS011;23046;50.112;8.952;2023-07-29T01:03:15;1.20;;;1.10;;
37151;SDS011;23046;50.112;8.952;2023-07-29T01:03:27;1.30;;;1.10;;
37151;SDS011;23046;50.112;8.952;2023-07-29T01:03:38;1.23;;;1.05;;
37151;SDS011;23046;50.112;8.952;2023-07-29T01:03:49;1.87;;;1.10;;